Time;durP1;ratioP1;P1;durP2;ratioP2;P2;SDS_P1;SDS_P2;PMS_P1;PMS_P2;Temp;Humidity;BMP_temperature;BMP_pressure;BME280_temperature;BME280_humidity;BME280_pressure;Samples;Min_cycle;Max_cycle;Signal;HPM_P1;HPM_P2
2022/04/15 00:01:23;;;;;;;13.80;6.82;;;;;;;11.32;39.58;95381.31;5014146;28;20226;-59
2022/04/15 00:03:50;;;;;;;12.00;6.10;;;;;;;11.16;39.96;95387.22;5017878;28;20223;-59
2022/04/15 00:06:19;;;;;;;12.75;6.30;;;;;;;11.06;40.04;95381.16;5020881;28;20226;-59
2022/04/15 00:08:45;;;;;;;8.85;6.40;;;;;;;11.19;39.91;95384.28;5017189;28;20419;-58
2022/04/15 00:11:12;;;;;;;9.52;6.18;;;;;;;11.15;39.69;95378.50;5015892;28;20249;-59
2022/04/15 00:13:37;;;;;;;11.05;6.60;;;;;;;10.98;40.54;95387.97;5011500;28;20214;-59
2022/04/15 00:16:05;;;;;;;9.27;6.40;;;;;;;11.03;40.87;95388.38;5011865;28;20315;-59
2022/04/15 00:18:32;;;;;;;11.38;6.20;;;;;;;10.95;40.21;95390.06;5009724;28;20258;-59
2022/04/15 00:20:58;;;;;;;7.85;5.65;;;;;;;10.80;39.06;95385.28;5014250;28;20203;-59
2022/04/15 00:23:24;;;;;;;6.93;5.72;;;;;;;10.72;40.23;95387.81;4999992;28;20227;-59
2022/04/15 00:25:50;;;;;;;7.88;5.63;;;;;;;10.75;40.05;95392.78;5016093;28;20233;-59
2022/04/15 00:28:18;;;;;;;7.57;5.43;;;;;;;10.98;39.17;95387.16;5017385;28;20246;-59
2022/04/15 00:30:44;;;;;;;6.18;5.50;;;;;;;10.67;40.98;95389.22;5030832;28;20227;-60
2022/04/15 00:33:09;;;;;;;8.55;5.95;;;;;;;10.82;40.87;95391.25;5016167;28;20206;-60
2022/04/15 00:35:35;;;;;;;9.70;5.82;;;;;;;10.70;41.44;95389.75;5014012;28;20203;-60
2022/04/15 00:38:00;;;;;;;7.68;5.82;;;;;;;10.80;40.72;95392.34;5017732;28;20226;-60
2022/04/15 00:40:26;;;;;;;9.02;5.65;;;;;;;10.84;40.22;95385.81;5015293;28;20223;-60
2022/04/15 00:42:52;;;;;;;11.50;6.20;;;;;;;10.71;40.80;95395.84;5019889;28;20233;-60
2022/04/15 00:45:17;;;;;;;13.00;6.13;;;;;;;10.59;41.56;95390.75;4992638;28;20215;-60
2022/04/15 00:47:54;;;;;;;11.52;6.60;;;;;;;10.59;42.15;95388.13;5013033;28;20298;-60
2022/04/15 00:50:34;;;;;;;9.90;6.90;;;;;;;10.58;40.99;95393.50;5008139;28;20249;-60
2022/04/15 00:53:06;;;;;;;8.50;6.20;;;;;;;10.70;40.05;95387.13;5008184;28;20314;-59
2022/04/15 00:55:32;;;;;;;7.15;5.60;;;;;;;10.63;41.35;95395.72;5000465;28;20227;-60
2022/04/15 00:58:00;;;;;;;7.35;6.32;;;;;;;10.49;42.32;95392.56;5001000;28;20237;-60
2022/04/15 01:00:27;;;;;;;14.00;7.18;;;;;;;10.44;42.35;95397.41;5000209;28;20305;-59
2022/04/15 01:02:56;;;;;;;10.95;6.82;;;;;;;10.54;41.81;95392.97;5014790;28;20465;-59
2022/04/15 01:05:22;;;;;;;9.13;6.40;;;;;;;10.51;41.78;95392.44;5025670;28;20269;-59
2022/04/15 01:07:55;;;;;;;8.95;5.72;;;;;;;10.44;41.19;95399.22;5013265;28;20274;-59
2022/04/15 01:10:22;;;;;;;9.27;6.85;;;;;;;10.42;41.54;95403.78;5006269;28;20261;-60
2022/04/15 01:12:53;;;;;;;11.77;6.65;;;;;;;10.34;42.38;95402.72;5016680;28;20231;-60
2022/04/15 01:15:20;;;;;;;13.13;6.78;;;;;;;10.43;42.11;95393.16;5008016;28;20222;-60
2022/04/15 01:17:45;;;;;;;8.50;6.68;;;;;;;10.30;42.32;95393.44;4993115;28;20246;-59
2022/04/15 01:20:12;;;;;;;10.45;6.50;;;;;;;10.06;43.33;95393.03;5008336;28;20221;-60
2022/04/15 01:22:45;;;;;;;10.75;6.68;;;;;;;10.05;43.34;95394.81;5006407;28;20241;-60
2022/04/15 01:25:14;;;;;;;13.20;6.35;;;;;;;10.02;43.80;95392.44;5011645;28;20250;-59
2022/04/15 01:27:45;;;;;;;9.98;6.88;;;;;;;10.05;43.91;95389.56;5015637;28;20226;-59
2022/04/15 01:30:17;;;;;;;12.55;6.30;;;;;;;9.63;45.62;95389.84;5014745;28;20334;-59
2022/04/15 01:32:43;;;;;;;13.38;6.93;;;;;;;9.93;43.88;95394.13;5014967;28;20226;-59
2022/04/15 01:35:11;;;;;;;11.90;6.63;;;;;;;9.85;44.51;95385.28;5012441;28;20258;-60
2022/04/15 01:37:37;;;;;;;18.08;7.32;;;;;;;9.96;43.69;95384.31;4990178;28;20227;-59
2022/04/15 01:40:04;;;;;;;12.73;7.03;;;;;;;9.83;44.13;95381.97;4994452;28;20237;-59
2022/04/15 01:42:30;;;;;;;13.32;7.50;;;;;;;9.84;43.86;95383.63;4994068;28;20230;-60
2022/04/15 01:44:56;;;;;;;11.98;6.30;;;;;;;9.82;44.09;95368.00;4998708;28;20216;-59
2022/04/15 01:47:21;;;;;;;9.55;5.90;;;;;;;9.77;43.39;95369.38;4990821;28;20236;-60
2022/04/15 01:49:47;;;;;;;10.98;5.07;;;;;;;9.62;43.83;95366.31;5013966;28;20214;-61
2022/04/15 01:52:12;;;;;;;9.75;5.05;;;;;;;9.60;43.15;95363.84;5000986;28;20235;-60
2022/04/15 01:54:38;;;;;;;9.88;5.70;;;;;;;9.74;42.94;95359.16;4991334;28;20222;-59
2022/04/15 01:57:04;;;;;;;13.48;5.53;;;;;;;9.75;42.82;95353.75;4996876;28;20218;-59
2022/04/15 01:59:29;;;;;;;9.68;5.45;;;;;;;9.43;44.65;95367.97;5024832;28;20222;-60
2022/04/15 02:01:55;;;;;;;11.13;6.00;;;;;;;9.29;45.27;95363.13;5003467;28;20260;-60
2022/04/15 02:04:25;;;;;;;9.82;5.80;;;;;;;9.50;45.54;95363.00;4998367;28;20231;-60
2022/04/15 02:06:52;;;;;;;9.18;6.00;;;;;;;9.52;45.44;95365.50;4994385;28;20230;-59
2022/04/15 02:09:18;;;;;;;7.20;5.20;;;;;;;9.38;46.14;95367.56;4995744;28;20226;-59
2022/04/15 02:11:43;;;;;;;8.30;5.75;;;;;;;9.26;46.33;95360.75;4997755;28;20265;-60
2022/04/15 02:14:09;;;;;;;8.27;5.55;;;;;;;9.26;46.79;95353.72;5012987;28;20218;-58
2022/04/15 02:16:35;;;;;;;7.18;5.75;;;;;;;9.28;46.27;95359.66;5013292;28;20234;-59
2022/04/15 02:19:01;;;;;;;8.15;5.40;;;;;;;9.18;46.76;95356.19;4999117;28;20234;-59
2022/04/15 02:21:27;;;;;;;10.05;5.63;;;;;;;9.15;45.95;95364.34;5015191;28;20202;-59
2022/04/15 02:23:52;;;;;;;9.38;5.60;;;;;;;9.17;45.96;95357.16;5027542;28;20224;-59
2022/04/15 02:26:17;;;;;;;12.75;6.18;;;;;;;9.02;46.54;95358.50;5010669;28;20300;-59
2022/04/15 02:28:43;;;;;;;14.38;5.78;;;;;;;9.11;45.54;95357.69;5006695;28;20238;-59
2022/04/15 02:31:09;;;;;;;7.70;5.55;;;;;;;9.17;45.22;95362.41;4990151;28;20247;-59
2022/04/15 02:33:34;;;;;;;9.77;5.57;;;;;;;9.22;44.74;95359.34;4994186;28;20234;-59
2022/04/15 02:35:59;;;;;;;12.32;5.70;;;;;;;9.11;45.23;95356.84;4998413;28;20207;-59
2022/04/15 02:38:25;;;;;;;10.77;5.60;;;;;;;9.01;45.16;95362.09;5010137;28;20365;-59
2022/04/15 02:40:51;;;;;;;10.50;5.38;;;;;;;9.04;45.46;95359.19;5005418;28;20231;-59
2022/04/15 02:43:17;;;;;;;9.60;5.15;;;;;;;9.11;45.45;95362.09;4997484;28;20315;-59
2022/04/15 02:45:43;;;;;;;18.10;6.00;;;;;;;8.93;46.03;95360.13;4997422;28;20254;-59
2022/04/15 02:48:09;;;;;;;12.43;5.47;;;;;;;8.98;45.68;95355.31;4996872;28;20222;-59
2022/04/15 02:50:34;;;;;;;14.00;6.03;;;;;;;8.99;45.69;95364.00;4982423;28;20227;-59
2022/04/15 02:53:01;;;;;;;13.68;6.50;;;;;;;8.92;46.12;95361.09;5013586;28;20280;-59
2022/04/15 02:55:27;;;;;;;13.27;6.03;;;;;;;8.76;45.92;95364.19;5017508;28;20222;-59
2022/04/15 02:57:53;;;;;;;10.82;5.68;;;;;;;8.90;45.48;95360.41;5015949;28;20222;-59
2022/04/15 03:00:22;;;;;;;8.82;5.30;;;;;;;8.97;44.77;95363.31;5010201;28;20207;-60
2022/04/15 03:02:47;;;;;;;8.00;5.30;;;;;;;8.79;45.11;95369.19;5017307;28;20214;-59
2022/04/15 03:05:14;;;;;;;9.83;5.10;;;;;;;8.95;44.67;95362.59;5015363;28;20226;-60
2022/04/15 03:07:40;;;;;;;15.48;5.32;;;;;;;9.05;44.68;95366.91;5020158;28;20221;-60
2022/04/15 03:10:07;;;;;;;12.60;5.88;;;;;;;9.02;44.03;95359.31;5017818;28;20225;-60
2022/04/15 03:12:39;;;;;;;8.20;4.50;;;;;;;9.10;43.10;95356.03;5015668;28;20234;-60
2022/04/15 03:15:06;;;;;;;5.88;4.50;;;;;;;9.00;42.81;95358.63;5019994;28;20285;-60
2022/04/15 03:17:35;;;;;;;6.07;4.88;;;;;;;8.89;43.15;95360.53;5020669;28;20261;-60
2022/04/15 03:20:02;;;;;;;8.63;4.93;;;;;;;8.73;43.06;95363.63;5024025;28;20601;-60
2022/04/15 03:22:35;;;;;;;7.93;4.50;;;;;;;8.83;42.36;95362.72;5023153;28;20231;-60
2022/04/15 03:25:01;;;;;;;6.97;4.97;;;;;;;8.86;42.60;95363.41;5010303;28;20231;-60
2022/04/15 03:27:27;;;;;;;8.88;5.25;;;;;;;8.78;42.46;95359.66;4996026;28;20222;-60
2022/04/15 03:29:52;;;;;;;9.80;5.63;;;;;;;8.84;42.63;95359.13;5022503;28;20207;-60
2022/04/15 03:32:18;;;;;;;5.60;4.32;;;;;;;8.68;43.00;95360.59;5020136;28;20215;-60
2022/04/15 03:34:43;;;;;;;7.40;4.27;;;;;;;8.76;42.46;95366.81;5018066;28;20229;-60
2022/04/15 03:37:09;;;;;;;5.70;4.10;;;;;;;8.86;42.25;95373.91;5018095;28;20318;-60
2022/04/15 03:39:35;;;;;;;8.17;3.93;;;;;;;8.72;42.24;95365.44;5021160;28;20234;-60
2022/04/15 03:42:01;;;;;;;8.47;4.93;;;;;;;8.73;42.35;95368.88;5016414;28;20225;-60
2022/04/15 03:44:27;;;;;;;9.80;4.70;;;;;;;8.80;42.13;95376.09;5020591;28;20234;-60
2022/04/15 03:46:52;;;;;;;7.00;4.32;;;;;;;8.80;42.46;95381.34;5014727;28;20466;-59
2022/04/15 03:49:18;;;;;;;7.80;4.70;;;;;;;8.56;42.82;95380.81;5019846;28;20238;-60
2022/04/15 03:51:43;;;;;;;11.57;4.93;;;;;;;8.54;42.77;95374.88;5019305;28;20226;-59
2022/04/15 03:54:09;;;;;;;8.70;4.47;;;;;;;8.53;43.63;95381.09;5022695;28;20216;-59
2022/04/15 03:56:36;;;;;;;14.07;4.60;;;;;;;8.56;43.62;95383.44;5003038;28;20217;-59
2022/04/15 03:59:03;;;;;;;13.23;6.30;;;;;;;8.42;45.13;95378.50;5000029;28;20457;-61
2022/04/15 04:01:29;;;;;;;15.17;6.10;;;;;;;8.33;45.40;95382.72;5004536;28;20227;-60
2022/04/15 04:03:54;;;;;;;11.40;5.80;;;;;;;8.25;46.29;95385.16;5021499;28;20304;-59
2022/04/15 04:06:20;;;;;;;15.67;6.57;;;;;;;8.36;46.08;95388.53;5020672;28;20213;-59
2022/04/15 04:08:49;;;;;;;12.17;6.20;;;;;;;8.32;46.29;95389.75;5023589;28;20206;-59
2022/04/15 04:11:19;;;;;;;15.60;6.43;;;;;;;8.23;46.07;95387.06;5018453;28;20317;-59
2022/04/15 04:13:45;;;;;;;19.83;6.20;;;;;;;8.32;45.96;95381.91;5017865;28;20222;-59
2022/04/15 04:16:13;;;;;;;13.77;6.43;;;;;;;8.43;45.48;95388.06;5034915;28;20225;-59
2022/04/15 04:18:40;;;;;;;13.40;6.20;;;;;;;8.57;44.62;95392.94;5020264;28;20237;-59
2022/04/15 04:21:07;;;;;;;9.90;5.70;;;;;;;8.50;44.22;95394.41;5016123;28;20222;-62
2022/04/15 04:23:33;;;;;;;13.57;5.63;;;;;;;8.45;45.15;95399.25;5020233;28;20235;-62
2022/04/15 04:25:59;;;;;;;18.20;6.70;;;;;;;8.42;44.92;95391.63;5018173;28;20222;-62
2022/04/15 04:28:24;;;;;;;15.53;7.10;;;;;;;8.36;45.06;95395.56;5014258;28;20226;-62
2022/04/15 04:30:50;;;;;;;20.87;7.30;;;;;;;8.44;45.22;95400.19;5020038;28;20316;-61
2022/04/15 04:33:15;;;;;;;19.07;7.07;;;;;;;8.41;44.97;95387.34;5012236;28;20203;-61
2022/04/15 04:35:41;;;;;;;14.80;6.80;;;;;;;8.47;44.82;95397.31;5019779;28;20210;-61
2022/04/15 04:38:06;;;;;;;14.33;6.97;;;;;;;8.54;45.91;95399.28;5000562;28;20218;-61
2022/04/15 04:40:34;;;;;;;18.87;7.13;;;;;;;8.51;46.98;95399.53;4996091;28;20238;-61
2022/04/15 04:43:00;;;;;;;12.87;7.00;;;;;;;8.56;46.37;95405.22;5011552;28;20231;-61
2022/04/15 04:45:25;;;;;;;13.87;7.20;;;;;;;8.58;47.10;95399.84;5002371;28;20207;-61
2022/04/15 04:47:52;;;;;;;18.37;7.13;;;;;;;8.50;47.39;95399.66;4998460;28;20207;-61
2022/04/15 04:50:18;;;;;;;19.87;7.70;;;;;;;8.42;47.61;95402.09;5005602;28;20235;-61
2022/04/15 04:52:46;;;;;;;14.83;7.50;;;;;;;8.51;45.70;95406.59;4995857;28;20218;-61
2022/04/15 04:55:13;;;;;;;13.17;7.43;;;;;;;8.73;46.22;95410.84;4993345;28;20259;-61
2022/04/15 04:57:39;;;;;;;14.70;7.00;;;;;;;8.92;45.23;95408.28;4995234;28;20696;-62
2022/04/15 05:00:07;;;;;;;22.57;6.20;;;;;;;9.01;45.17;95411.94;5014343;28;20363;-61
2022/04/15 05:02:32;;;;;;;11.67;5.17;;;;;;;9.11;42.80;95402.28;5032188;28;20226;-61
2022/04/15 05:04:58;;;;;;;9.63;4.72;;;;;;;9.23;41.43;95406.47;5004918;28;20233;-61
2022/04/15 05:07:23;;;;;;;11.53;4.63;;;;;;;9.29;40.42;95412.97;4998311;28;20230;-61
2022/04/15 05:09:49;;;;;;;9.93;4.50;;;;;;;9.43;40.30;95412.59;5001040;28;20223;-62
2022/04/15 05:12:14;;;;;;;6.97;3.47;;;;;;;9.45;39.46;95408.03;4994847;28;20196;-61
2022/04/15 05:14:40;;;;;;;11.50;4.33;;;;;;;9.47;39.43;95410.53;5012260;28;20205;-62
2022/04/15 05:17:05;;;;;;;11.10;4.40;;;;;;;9.52;39.54;95404.88;5013134;28;20255;-62
2022/04/15 05:19:31;;;;;;;15.10;4.70;;;;;;;9.57;39.22;95408.75;5018639;28;20221;-59
2022/04/15 05:21:57;;;;;;;10.90;4.63;;;;;;;9.63;39.11;95415.25;5016793;28;20230;-58
2022/04/15 05:24:22;;;;;;;5.90;4.33;;;;;;;9.71;38.88;95418.03;5014542;28;20206;-58
2022/04/15 05:26:48;;;;;;;8.13;5.00;;;;;;;9.65;39.92;95415.94;5011392;28;20273;-66
2022/04/15 05:29:13;;;;;;;9.93;5.00;;;;;;;9.84;39.99;95409.91;5013426;28;20213;-64
2022/04/15 05:31:39;;;;;;;8.85;4.97;;;;;;;9.78;39.69;95413.88;5013348;28;20233;-63
2022/04/15 05:34:05;;;;;;;10.57;4.40;;;;;;;9.91;39.55;95411.81;5013772;28;20280;-64
2022/04/15 05:36:30;;;;;;;10.70;5.03;;;;;;;9.88;39.81;95416.53;5015663;28;20284;-64
2022/04/15 05:38:55;;;;;;;12.80;5.18;;;;;;;10.02;40.12;95410.84;5015241;28;20211;-64
2022/04/15 05:41:21;;;;;;;11.23;5.20;;;;;;;10.03;40.21;95407.25;5000286;28;20224;-64
2022/04/15 05:43:47;;;;;;;11.30;5.47;;;;;;;10.14;39.91;95404.50;4993796;28;20267;-64
2022/04/15 05:46:13;;;;;;;10.05;4.88;;;;;;;10.29;39.90;95412.81;5005878;28;20257;-64
2022/04/15 05:48:39;;;;;;;9.70;4.78;;;;;;;10.47;39.40;95414.72;5008103;28;20428;-65
2022/04/15 05:51:05;;;;;;;11.27;5.32;;;;;;;10.50;39.77;95410.00;5001422;28;20215;-64
2022/04/15 05:53:30;;;;;;;17.00;4.93;;;;;;;10.55;39.72;95405.13;5001400;28;20274;-65
2022/04/15 05:55:57;;;;;;;12.13;5.30;;;;;;;10.53;39.36;95409.72;4995501;28;20221;-64
2022/04/15 05:58:24;;;;;;;5.93;4.53;;;;;;;10.57;39.57;95407.63;4998772;28;20314;-64
2022/04/15 06:00:49;;;;;;;11.50;5.00;;;;;;;10.65;39.76;95409.56;4994552;28;20235;-64
2022/04/15 06:03:15;;;;;;;9.85;5.28;;;;;;;10.73;39.86;95405.25;4994735;28;20215;-64
2022/04/15 06:05:40;;;;;;;9.95;4.50;;;;;;;10.76;39.63;95401.50;5015783;28;20253;-64
2022/04/15 06:08:06;;;;;;;10.65;4.85;;;;;;;10.83;39.23;95402.59;5012200;28;20306;-63
2022/04/15 06:10:31;;;;;;;7.70;4.60;;;;;;;10.87;38.53;95400.50;5010877;28;20264;-68
2022/04/15 06:13:09;;;;;;;12.73;4.78;;;;;;;10.81;38.76;95400.09;5016140;28;20227;-67
2022/04/15 06:15:36;;;;;;;6.25;4.35;;;;;;;10.98;38.35;95401.13;4998021;28;20222;-63
2022/04/15 06:18:02;;;;;;;9.25;4.38;;;;;;;11.03;37.68;95406.78;5000452;28;20262;-65
2022/04/15 06:20:29;;;;;;;8.18;4.30;;;;;;;11.04;37.94;95403.19;5000798;28;20227;-65
2022/04/15 06:22:55;;;;;;;10.70;6.00;;;;;;;11.08;37.82;95400.28;5009749;28;20629;-65
2022/04/15 06:25:21;;;;;;;9.20;5.00;;;;;;;11.16;37.54;95408.25;5013988;28;20231;-66
2022/04/15 06:27:46;;;;;;;8.15;4.63;;;;;;;11.21;37.43;95409.47;5023231;28;20238;-66
2022/04/15 06:30:12;;;;;;;6.85;4.93;;;;;;;11.31;36.76;95401.56;5018758;28;20219;-65
2022/04/15 06:32:38;;;;;;;7.28;5.47;;;;;;;11.34;37.31;95403.06;5015146;28;20214;-66
2022/04/15 06:35:05;;;;;;;9.93;5.82;;;;;;;11.42;37.18;95405.78;5017088;28;20260;-64
2022/04/15 06:37:30;;;;;;;7.13;4.90;;;;;;;11.61;36.19;95394.31;5016439;28;20972;-66
2022/04/15 06:39:56;;;;;;;7.80;4.28;;;;;;;11.66;36.04;95392.88;5016734;28;20252;-71
2022/04/15 06:42:27;;;;;;;6.03;4.00;;;;;;;11.68;36.12;95385.66;5026878;28;20214;-66
2022/04/15 06:44:53;;;;;;;10.73;4.88;;;;;;;11.72;36.03;95391.44;5023029;28;20272;-67
2022/04/15 06:47:19;;;;;;;8.15;4.30;;;;;;;11.78;35.83;95393.47;5023811;28;20222;-67
2022/04/15 06:49:46;;;;;;;5.88;4.68;;;;;;;11.88;35.95;95382.91;5004267;28;20227;-66
2022/04/15 06:52:15;;;;;;;6.32;4.68;;;;;;;11.93;35.42;95390.38;4992754;28;20239;-67
2022/04/15 06:54:41;;;;;;;5.72;4.13;;;;;;;11.90;35.44;95391.50;4994916;28;20258;-66
2022/04/15 06:57:07;;;;;;;5.07;3.88;;;;;;;12.03;35.67;95394.59;5002268;28;20223;-66
2022/04/15 06:59:33;;;;;;;6.18;4.40;;;;;;;12.02;35.50;95386.81;4990106;28;20222;-63
2022/04/15 07:01:59;;;;;;;7.60;4.32;;;;;;;12.11;34.83;95380.66;4993094;28;20234;-67
2022/04/15 07:04:27;;;;;;;9.68;3.97;;;;;;;12.26;34.86;95389.66;5003580;28;20231;-66
2022/04/15 07:06:52;;;;;;;10.45;4.97;;;;;;;12.29;34.55;95389.34;4994043;28;20359;-66
2022/04/15 07:09:18;;;;;;;10.75;5.07;;;;;;;12.44;34.85;95383.53;5015373;28;20198;-65
2022/04/15 07:11:43;;;;;;;8.27;5.28;;;;;;;12.47;33.80;95380.56;5010691;28;20191;-67
2022/04/15 07:14:09;;;;;;;7.82;5.13;;;;;;;12.36;34.65;95379.84;5013609;28;20218;-65
2022/04/15 07:16:34;;;;;;;9.02;5.22;;;;;;;12.57;34.94;95378.66;5000842;28;20218;-63
2022/04/15 07:19:04;;;;;;;9.93;4.50;;;;;;;12.62;34.85;95378.22;5016241;28;20234;-64
2022/04/15 07:21:30;;;;;;;10.15;4.57;;;;;;;12.70;34.44;95376.44;5008655;28;21677;-63
2022/04/15 07:23:56;;;;;;;8.90;4.82;;;;;;;12.82;34.34;95377.00;5007948;28;20215;-63
2022/04/15 07:26:21;;;;;;;9.43;4.72;;;;;;;12.93;33.84;95382.00;5010785;28;20234;-63
2022/04/15 07:28:47;;;;;;;9.70;5.45;;;;;;;13.05;33.42;95376.47;5014633;28;20230;-63
2022/04/15 07:31:12;;;;;;;11.70;5.10;;;;;;;13.04;33.28;95378.25;5001724;28;20322;-60
2022/04/15 07:33:37;;;;;;;6.43;4.95;;;;;;;13.11;32.72;95374.00;4995197;28;20214;-61
2022/04/15 07:36:28;;;;;;;8.13;4.68;;;;;;;13.07;32.43;95377.97;5001040;28;20199;-60
2022/04/15 07:38:49;;;;;;;8.43;4.90;;;;;;;13.21;32.05;95372.06;4992055;28;20770;-62
2022/04/15 07:41:16;;;;;;;7.22;5.63;;;;;;;13.25;32.31;95370.75;4998505;28;20230;-67
2022/04/15 07:43:48;;;;;;;9.68;5.28;;;;;;;13.28;32.53;95364.34;4995457;28;20231;-69
2022/04/15 07:46:14;;;;;;;12.63;6.63;;;;;;;13.39;33.05;95365.88;4995140;28;20231;-60
2022/04/15 07:48:39;;;;;;;9.63;5.53;;;;;;;13.52;33.01;95360.13;5001301;28;20618;-69
2022/04/15 07:51:05;;;;;;;8.90;5.70;;;;;;;13.58;32.82;95364.78;5017465;28;20217;-66
2022/04/15 07:53:30;;;;;;;12.52;5.55;;;;;;;13.66;32.56;95365.63;4992547;28;20223;-70
2022/04/15 07:55:56;;;;;;;13.40;5.60;;;;;;;13.59;32.35;95361.97;5015639;28;20222;-71
2022/04/15 07:58:21;;;;;;;9.45;5.88;;;;;;;13.68;32.29;95366.31;5015867;28;20323;-59
2022/04/15 08:00:46;;;;;;;7.65;6.53;;;;;;;13.84;32.02;95362.03;4997982;28;20230;-66
2022/04/15 08:03:17;;;;;;;12.75;6.65;;;;;;;13.88;32.56;95366.00;5016138;28;20217;-65
2022/04/15 08:05:43;;;;;;;9.70;5.50;;;;;;;14.01;31.08;95355.78;5015082;28;20209;-64
2022/04/15 08:08:08;;;;;;;10.00;5.10;;;;;;;13.94;31.00;95357.41;5018675;28;20654;-63
2022/04/15 08:10:34;;;;;;;9.80;5.60;;;;;;;14.06;31.54;95356.09;5011077;28;20234;-67
2022/04/15 08:13:01;;;;;;;10.38;5.90;;;;;;;14.15;31.21;95351.63;5030014;28;20230;-63
2022/04/15 08:15:27;;;;;;;10.40;5.95;;;;;;;14.16;31.75;95355.09;5015709;28;20313;-69
2022/04/15 08:17:52;;;;;;;12.43;5.65;;;;;;;14.23;30.88;95348.16;5016887;28;20241;-68
2022/04/15 08:20:18;;;;;;;9.23;5.90;;;;;;;14.42;30.59;95349.63;5015917;28;20236;-65
2022/04/15 08:22:44;;;;;;;12.32;5.60;;;;;;;14.38;30.53;95346.50;5012175;28;20315;-61
2022/04/15 08:25:09;;;;;;;12.40;5.75;;;;;;;14.51;29.48;95341.53;5010660;28;20249;-65
2022/04/15 08:27:35;;;;;;;8.70;5.50;;;;;;;14.54;29.50;95341.22;5029672;28;20309;-65
2022/04/15 08:30:01;;;;;;;10.02;5.80;;;;;;;14.59;29.77;95343.34;5018965;28;20198;-64
2022/04/15 08:32:33;;;;;;;7.20;5.75;;;;;;;14.58;29.43;95339.06;5019352;28;20230;-67
2022/04/15 08:35:00;;;;;;;7.55;5.70;;;;;;;14.58;29.95;95339.06;5002640;28;20231;-62
2022/04/15 08:37:26;;;;;;;10.35;5.63;;;;;;;14.68;30.08;95334.41;5000232;28;20258;-65
2022/04/15 08:39:51;;;;;;;9.30;5.65;;;;;;;14.83;29.50;95337.16;4996555;28;20255;-65
2022/04/15 08:42:20;;;;;;;7.47;5.32;;;;;;;14.78;29.71;95332.41;4998771;28;20213;-63
2022/04/15 08:44:49;;;;;;;7.40;4.85;;;;;;;14.89;29.14;95331.22;4992041;28;20219;-68
2022/04/15 08:47:15;;;;;;;6.32;4.60;;;;;;;14.81;29.08;95319.81;5008810;28;20225;-65
2022/04/15 08:49:40;;;;;;;6.20;4.20;;;;;;;14.98;28.86;95321.41;5000636;28;20219;-62
2022/04/15 08:52:08;;;;;;;9.68;4.47;;;;;;;15.08;29.25;95315.91;5007636;28;20225;-69
2022/04/15 08:54:34;;;;;;;6.38;4.05;;;;;;;15.16;29.95;95319.34;5028089;28;20230;-63
2022/04/15 08:56:59;;;;;;;10.48;4.68;;;;;;;15.30;29.01;95306.38;5018408;28;20203;-65
2022/04/15 08:59:25;;;;;;;14.20;5.78;;;;;;;15.33;28.92;95309.50;4993397;28;20230;-64
2022/04/15 09:01:50;;;;;;;6.32;3.72;;;;;;;15.34;28.35;95300.56;4994974;28;20405;-70
2022/04/15 09:04:18;;;;;;;5.10;3.70;;;;;;;15.39;28.52;95303.47;4997182;28;20229;-69
2022/04/15 09:06:43;;;;;;;4.70;3.47;;;;;;;15.41;28.13;95300.66;4997851;28;20231;-67
2022/04/15 09:09:14;;;;;;;7.78;3.08;;;;;;;15.60;28.39;95297.56;4993725;28;20218;-69
2022/04/15 09:11:44;;;;;;;5.25;2.40;;;;;;;15.72;27.94;95291.91;5018382;28;20235;-67
2022/04/15 09:14:14;;;;;;;3.80;2.83;;;;;;;15.86;27.42;95285.81;5014216;28;20215;-69
2022/04/15 09:16:45;;;;;;;5.35;2.63;;;;;;;15.92;25.96;95279.00;4998376;28;20295;-67
2022/04/15 09:19:12;;;;;;;3.92;2.58;;;;;;;15.90;26.49;95267.72;4992671;28;20230;-68
2022/04/15 09:21:39;;;;;;;7.07;3.05;;;;;;;16.06;26.66;95267.59;4997698;28;20556;-68
2022/04/15 09:24:07;;;;;;;6.50;3.03;;;;;;;16.16;26.56;95267.34;5010761;28;20552;-68
2022/04/15 09:26:33;;;;;;;4.00;2.53;;;;;;;16.35;27.09;95256.19;4994168;28;20231;-61
2022/04/15 09:28:59;;;;;;;5.88;2.88;;;;;;;16.49;26.11;95257.22;4988250;28;20223;-63
2022/04/15 09:31:25;;;;;;;3.30;2.40;;;;;;;16.45;25.09;95263.91;4996177;28;20297;-61
2022/04/15 09:33:56;;;;;;;4.13;2.50;;;;;;;16.70;26.78;95251.19;4992936;28;20230;-60
2022/04/15 09:36:29;;;;;;;3.78;2.38;;;;;;;16.87;25.08;95254.50;4996392;28;20203;-60
2022/04/15 09:39:10;;;;;;;4.35;2.78;;;;;;;16.78;25.44;95251.09;5015975;28;20271;-59
2022/04/15 09:41:37;;;;;;;4.28;2.22;;;;;;;16.92;25.54;95237.00;5017488;28;20222;-60
2022/04/15 09:44:02;;;;;;;3.28;2.75;;;;;;;17.22;25.59;95236.13;5001811;28;20276;-60
2022/04/15 09:46:30;;;;;;;5.50;3.22;;;;;;;17.34;25.06;95231.94;5007453;28;20233;-62
2022/04/15 09:49:09;;;;;;;6.78;3.30;;;;;;;17.48;26.01;95233.75;5018574;28;20221;-59
2022/04/15 09:51:45;;;;;;;5.28;3.17;;;;;;;17.69;25.40;95240.06;5029006;28;20229;-60
2022/04/15 09:54:22;;;;;;;4.75;2.70;;;;;;;17.83;25.06;95229.41;5017764;28;20664;-61
2022/04/15 09:56:49;;;;;;;6.18;2.75;;;;;;;18.01;24.28;95214.81;5013693;28;20210;-69
2022/04/15 09:59:15;;;;;;;5.45;3.03;;;;;;;18.14;24.57;95206.09;5000046;28;20231;-63
2022/04/15 10:01:45;;;;;;;6.50;2.97;;;;;;;18.32;25.07;95214.41;5008520;28;20227;-62
2022/04/15 10:04:13;;;;;;;4.72;3.20;;;;;;;18.41;24.39;95197.25;5019380;28;20230;-62
2022/04/15 10:06:40;;;;;;;4.57;3.30;;;;;;;18.42;25.10;95193.59;5010422;28;20656;-62
2022/04/15 10:09:10;;;;;;;5.60;3.70;;;;;;;18.55;24.51;95184.03;5011770;28;20295;-68
2022/04/15 10:11:37;;;;;;;6.32;3.05;;;;;;;18.50;23.93;95188.13;5012772;28;20313;-66
2022/04/15 10:14:03;;;;;;;6.72;3.10;;;;;;;18.60;24.11;95177.09;5018840;28;20218;-67
2022/04/15 10:16:33;;;;;;;5.00;3.00;;;;;;;18.74;23.78;95170.00;5010660;28;20265;-63
2022/04/15 10:19:02;;;;;;;7.20;3.28;;;;;;;18.98;25.09;95170.50;5018866;28;20226;-66
2022/04/15 10:21:31;;;;;;;7.40;3.55;;;;;;;19.20;24.29;95177.34;5014868;28;20203;-61
2022/04/15 10:23:58;;;;;;;5.53;3.20;;;;;;;19.37;23.66;95173.28;5007755;28;20215;-66
2022/04/15 10:26:23;;;;;;;6.97;3.47;;;;;;;19.38;23.54;95168.78;4995640;28;20393;-66
2022/04/15 10:28:53;;;;;;;4.10;3.00;;;;;;;19.31;22.97;95162.63;5016262;28;20226;-66
2022/04/15 10:31:18;;;;;;;6.50;3.50;;;;;;;19.38;23.60;95163.47;5029015;28;20700;-66
2022/04/15 10:33:49;;;;;;;8.65;3.25;;;;;;;19.59;23.16;95159.75;5024456;28;20229;-68
2022/04/15 10:36:23;;;;;;;5.90;3.35;;;;;;;19.68;23.21;95153.25;5020640;28;20428;-61
2022/04/15 10:39:04;;;;;;;3.65;2.88;;;;;;;19.88;22.74;95155.91;5020776;28;20202;-61
2022/04/15 10:41:50;;;;;;;6.15;3.60;;;;;;;20.11;21.72;95155.50;5014975;28;20599;-64
2022/04/15 10:44:40;;;;;;;3.70;2.90;;;;;;;19.93;21.66;95149.97;5012178;28;20264;-66
2022/04/15 10:47:22;;;;;;;6.40;3.22;;;;;;;20.18;22.00;95140.28;5030884;28;20253;-60
2022/04/15 10:50:07;;;;;;;10.43;2.90;;;;;;;20.38;21.88;95131.41;5017827;28;20244;-62
2022/04/15 10:52:34;;;;;;;4.85;2.72;;;;;;;20.63;21.16;95135.03;5016429;28;20230;-61
2022/04/15 10:55:07;;;;;;;7.35;3.30;;;;;;;20.72;20.98;95132.16;5006978;28;20280;-62
2022/04/15 10:57:41;;;;;;;6.75;3.20;;;;;;;20.97;20.57;95133.03;4996683;28;20229;-63
2022/04/15 11:03:01;;;;;;;5.63;2.72;;;;;;;21.27;19.41;95121.78;5001668;28;20326;-68
2022/04/15 11:05:42;;;;;;;6.68;3.40;;;;;;;21.43;20.39;95123.94;5019176;28;20736;-67
2022/04/15 11:08:16;;;;;;;5.30;3.30;;;;;;;21.57;19.71;95119.31;5013516;28;20238;-65
2022/04/15 11:10:41;;;;;;;3.58;3.00;;;;;;;21.70;19.21;95118.41;5009780;28;20226;-66
2022/04/15 11:13:34;;;;;;;6.32;3.30;;;;;;;21.75;19.19;95118.56;5011860;28;20226;-62
2022/04/15 11:16:15;;;;;;;8.88;4.05;;;;;;;21.94;19.01;95116.75;4988345;28;20282;-65
2022/04/15 11:18:43;;;;;;;7.15;3.30;;;;;;;22.03;18.98;95104.75;4978219;28;20231;-64
2022/04/15 11:21:19;;;;;;;5.88;3.47;;;;;;;22.14;19.03;95104.00;4978191;28;20610;-64
2022/04/15 11:23:56;;;;;;;7.90;3.33;;;;;;;22.29;17.39;95098.31;4982842;28;20265;-65
2022/04/15 11:26:23;;;;;;;7.57;3.60;;;;;;;22.16;17.00;95103.75;4985367;28;20343;-67
2022/04/15 11:28:52;;;;;;;4.47;2.95;;;;;;;22.22;17.26;95095.72;4980377;28;20339;-67
2022/04/15 11:31:26;;;;;;;5.22;3.38;;;;;;;22.27;17.67;95096.91;4982726;28;20223;-68
2022/04/15 11:33:53;;;;;;;5.30;3.53;;;;;;;22.40;17.80;95091.38;4976764;28;20258;-68
2022/04/15 11:36:20;;;;;;;6.68;3.83;;;;;;;22.54;17.77;95092.06;4979784;28;20211;-68
2022/04/15 11:38:46;;;;;;;7.82;3.28;;;;;;;22.75;18.06;95078.19;4980042;28;20211;-67